Time;durP1;ratioP1;P1;durP2;ratioP2;P2;SDS_P1;SDS_P2;PMS_P1;PMS_P2;Temp;Humidity;BMP_temperature;BMP_pressure;BME280_temperature;BME280_humidity;BME280_pressure;Samples;Min_cycle;Max_cycle;Signal;HPM_P1;HPM_P2
2022/05/10 00:01:34;;;;;;;0.55;0.55;;;;;;;18.95;49.92;101461.97;5100332;28;20027;-87
2022/05/10 00:04:07;;;;;;;0.60;0.60;;;;;;;18.95;49.88;101465.50;5081208;28;20318;-85
2022/05/10 00:06:42;;;;;;;1.05;0.77;;;;;;;18.90;49.97;101464.84;5115271;28;20508;-87
2022/05/10 00:09:15;;;;;;;1.70;0.60;;;;;;;18.90;50.07;101463.97;5128746;28;20035;-87
2022/05/10 00:11:47;;;;;;;0.88;0.88;;;;;;;18.83;50.20;101461.63;5102767;28;20459;-87
2022/05/10 00:14:17;;;;;;;0.60;0.60;;;;;;;18.84;50.09;101462.50;5100783;28;20041;-87
2022/05/10 00:16:51;;;;;;;1.05;0.95;;;;;;;18.81;50.21;101460.81;5083883;28;20441;-86
2022/05/10 00:19:22;;;;;;;2.58;0.90;;;;;;;18.79;50.37;101453.88;5082646;28;20105;-87
2022/05/10 00:21:53;;;;;;;2.15;0.90;;;;;;;18.76;50.40;101454.88;5087531;28;20034;-86
2022/05/10 00:24:24;;;;;;;0.43;0.43;;;;;;;18.69;50.53;101456.13;5102744;28;20161;-87
2022/05/10 00:26:55;;;;;;;1.73;1.63;;;;;;;18.67;50.59;101456.22;5087487;28;20464;-88
2022/05/10 00:29:26;;;;;;;1.35;1.08;;;;;;;18.74;51.14;101448.78;5091073;28;20112;-87
2022/05/10 00:31:56;;;;;;;1.08;0.98;;;;;;;18.64;51.13;101448.38;5122114;28;20062;-88
2022/05/10 00:34:29;;;;;;;1.13;0.80;;;;;;;18.64;51.19;101445.72;5111483;28;20035;-87
2022/05/10 00:37:00;;;;;;;1.58;1.08;;;;;;;18.68;50.81;101451.75;5103743;28;20372;-88
2022/05/10 00:39:31;;;;;;;2.50;1.58;;;;;;;18.65;50.74;101441.25;5099545;28;20038;-88
2022/05/10 00:42:12;;;;;;;0.75;0.75;;;;;;;18.62;51.14;101442.28;5092793;28;20031;-87
2022/05/10 00:44:55;;;;;;;1.58;1.13;;;;;;;18.65;51.01;101441.25;5090258;28;20481;-87
2022/05/10 00:47:31;;;;;;;2.85;1.35;;;;;;;18.68;51.03;101441.97;5085610;28;20021;-86
2022/05/10 00:50:11;;;;;;;1.45;1.35;;;;;;;18.60;51.16;101440.63;5128656;23;20046;-80
2022/05/10 00:52:55;;;;;;;0.85;0.82;;;;;;;18.61;50.97;101435.25;5131381;28;20030;-80
2022/05/10 00:55:34;;;;;;;3.75;1.85;;;;;;;18.58;51.38;101440.72;5151671;28;20093;-80
2022/05/10 00:58:17;;;;;;;2.17;1.48;;;;;;;18.54;54.54;101445.34;5139072;28;20036;-79
2022/05/10 01:00:49;;;;;;;2.10;1.38;;;;;;;18.56;51.75;101447.91;5148785;28;20074;-80
2022/05/10 01:03:28;;;;;;;1.40;1.33;;;;;;;18.58;52.12;101445.16;5111660;28;20197;-80
2022/05/10 01:06:33;;;;;;;2.35;1.80;;;;;;;18.54;51.92;101445.34;5160985;28;20064;-80
2022/05/10 01:09:41;;;;;;;1.05;1.05;;;;;;;18.47;52.23;101433.25;5146820;28;20043;-80
2022/05/10 01:12:31;;;;;;;0.90;0.90;;;;;;;18.49;52.12;101435.88;5081183;28;20046;-80
2022/05/10 01:15:28;;;;;;;8.80;1.70;;;;;;;18.50;52.26;101437.59;5150853;28;20525;-80
2022/05/10 01:17:59;;;;;;;2.42;1.58;;;;;;;18.45;51.96;101440.47;5143679;28;20110;-80
2022/05/10 01:20:44;;;;;;;1.02;0.95;;;;;;;18.36;52.52;101430.28;5144332;28;20117;-80
2022/05/10 01:23:42;;;;;;;1.15;1.08;;;;;;;18.38;51.76;101434.59;5134500;28;20030;-80
2022/05/10 01:26:23;;;;;;;0.70;0.70;;;;;;;18.38;52.03;101423.97;5156592;28;20121;-80
2022/05/10 01:29:00;;;;;;;1.23;1.13;;;;;;;18.35;51.89;101428.56;5129173;28;20061;-81
2022/05/10 01:31:40;;;;;;;0.75;0.75;;;;;;;18.29;52.08;101419.09;5162803;28;20022;-80
2022/05/10 01:34:19;;;;;;;1.20;1.10;;;;;;;18.28;52.28;101414.72;5130739;28;20722;-79
2022/05/10 01:36:57;;;;;;;1.45;1.27;;;;;;;18.23;52.51;101412.28;5144132;28;20057;-80
2022/05/10 01:39:40;;;;;;;3.60;1.48;;;;;;;18.21;52.38;101411.50;5144986;28;20092;-79
2022/05/10 01:42:14;;;;;;;1.45;1.35;;;;;;;18.22;52.43;101407.88;5158290;28;20760;-79
2022/05/10 01:44:57;;;;;;;1.13;1.02;;;;;;;18.17;52.57;101415.22;5127203;28;20047;-79
2022/05/10 01:47:39;;;;;;;2.17;0.95;;;;;;;18.15;52.66;101403.81;5145876;28;20117;-79
2022/05/10 01:50:46;;;;;;;1.30;1.20;;;;;;;18.15;52.50;101402.97;5130264;28;20038;-79
2022/05/10 01:53:24;;;;;;;0.80;0.80;;;;;;;18.16;52.99;101404.69;5134527;28;20053;-79
2022/05/10 01:56:10;;;;;;;0.88;0.88;;;;;;;18.15;52.44;101402.97;5129518;28;20081;-79
2022/05/10 01:58:44;;;;;;;0.88;0.77;;;;;;;18.13;52.56;101403.06;5149849;28;20113;-79
2022/05/10 02:01:40;;;;;;;1.75;1.60;;;;;;;18.12;52.71;101400.44;5108835;28;20334;-79
2022/05/10 02:04:23;;;;;;;1.15;0.90;;;;;;;18.08;52.73;101405.03;5129404;28;20045;-79
2022/05/10 02:07:00;;;;;;;0.70;0.70;;;;;;;18.07;52.67;101403.31;5129662;28;20302;-79
2022/05/10 02:09:48;;;;;;;0.82;0.82;;;;;;;18.02;52.88;101402.69;5131875;28;20150;-79
2022/05/10 02:12:53;;;;;;;1.13;1.13;;;;;;;17.99;52.91;101398.41;5149335;28;20048;-79
2022/05/10 02:15:40;;;;;;;1.05;1.00;;;;;;;18.01;53.08;101403.63;5141932;28;20080;-79
2022/05/10 02:18:50;;;;;;;1.48;1.33;;;;;;;17.94;53.30;101406.53;5135141;28;20098;-79
2022/05/10 02:21:29;;;;;;;1.88;1.77;;;;;;;17.86;53.54;101406.03;5117757;28;20106;-78
2022/05/10 02:24:07;;;;;;;1.77;1.60;;;;;;;17.89;53.44;101405.88;5128226;28;20351;-80
2022/05/10 02:26:48;;;;;;;0.50;0.47;;;;;;;17.90;53.54;101401.44;5144049;28;20457;-79
2022/05/10 02:29:32;;;;;;;0.93;0.90;;;;;;;17.90;53.23;101404.94;5140648;28;20094;-79
2022/05/10 02:35:02;;;;;;;6.13;1.58;;;;;;;17.84;53.58;101396.44;5150809;28;20042;-79
2022/05/10 02:37:32;;;;;;;0.80;0.80;;;;;;;17.83;53.41;101395.56;5157609;28;20482;-79
2022/05/10 02:40:05;;;;;;;0.75;0.63;;;;;;;17.81;53.14;101389.44;5127312;28;20069;-79
2022/05/10 02:42:36;;;;;;;1.08;1.00;;;;;;;17.83;54.12;101392.91;5114939;28;20034;-79
2022/05/10 02:45:08;;;;;;;0.95;0.93;;;;;;;17.85;54.01;101382.22;5128372;28;20046;-78
2022/05/10 02:47:42;;;;;;;1.67;1.58;;;;;;;17.74;53.59;101377.41;5150933;28;20041;-78
2022/05/10 02:50:23;;;;;;;0.82;0.82;;;;;;;17.75;54.03;101377.34;5163671;28;20030;-79
2022/05/10 02:52:54;;;;;;;4.43;1.65;;;;;;;17.70;53.83;101378.50;5126580;28;20037;-79
2022/05/10 02:55:34;;;;;;;1.25;1.15;;;;;;;17.65;53.93;101372.53;5116908;28;20457;-79
2022/05/10 02:58:15;;;;;;;1.77;0.57;;;;;;;17.65;53.60;101369.88;5169109;28;20030;-79
2022/05/10 03:00:48;;;;;;;2.38;1.15;;;;;;;17.62;53.27;101371.75;5153658;28;20106;-79
2022/05/10 03:03:22;;;;;;;2.20;1.60;;;;;;;17.58;54.06;101370.16;5164092;28;20465;-79
2022/05/10 03:05:54;;;;;;;1.00;1.00;;;;;;;17.59;53.50;101363.94;5118747;28;20034;-79
2022/05/10 03:08:24;;;;;;;0.60;0.60;;;;;;;17.55;54.11;101356.19;5164272;28;20026;-79
2022/05/10 03:10:58;;;;;;;1.85;1.75;;;;;;;17.57;53.16;101359.63;5131358;28;20165;-79
2022/05/10 03:13:29;;;;;;;0.80;0.80;;;;;;;17.49;54.01;101357.31;5151094;28;20030;-79
2022/05/10 03:16:00;;;;;;;3.05;1.42;;;;;;;17.51;53.77;101351.97;5163245;28;20845;-78
2022/05/10 03:18:30;;;;;;;2.58;1.60;;;;;;;17.50;53.87;101351.09;5119405;28;20023;-78
2022/05/10 03:21:01;;;;;;;0.82;0.82;;;;;;;17.43;53.93;101352.31;5164364;28;20042;-79
2022/05/10 03:23:32;;;;;;;3.30;1.75;;;;;;;17.39;54.08;101350.72;5126598;28;20369;-78
2022/05/10 03:26:02;;;;;;;1.02;0.95;;;;;;;17.37;54.24;101349.94;5127659;28;20498;-79
2022/05/10 03:28:33;;;;;;;0.93;0.93;;;;;;;17.35;54.29;101350.03;5148290;28;20081;-79
2022/05/10 03:31:06;;;;;;;1.13;1.02;;;;;;;17.40;54.06;101352.44;5164030;28;20026;-79
2022/05/10 03:33:39;;;;;;;1.38;1.27;;;;;;;17.36;53.93;101343.75;5131284;28;20069;-79
2022/05/10 03:36:09;;;;;;;6.78;0.80;;;;;;;17.27;54.70;101342.41;5130719;28;20394;-79
2022/05/10 03:38:40;;;;;;;1.02;1.02;;;;;;;17.22;54.50;101347.06;5126254;28;20054;-79
2022/05/10 03:41:15;;;;;;;1.00;1.00;;;;;;;17.24;54.32;101339.88;5142897;28;20061;-79
2022/05/10 03:43:45;;;;;;;1.50;1.30;;;;;;;17.23;54.27;101346.09;5146666;28;20039;-79
2022/05/10 03:46:16;;;;;;;1.40;1.30;;;;;;;17.16;54.51;101334.06;5133482;28;20415;-79
2022/05/10 03:48:49;;;;;;;0.77;0.77;;;;;;;17.11;54.32;101336.06;5162519;28;20142;-79
2022/05/10 03:51:19;;;;;;;0.88;0.80;;;;;;;17.06;54.89;101330.13;5148625;28;20275;-79
2022/05/10 03:53:50;;;;;;;1.15;1.13;;;;;;;17.09;54.48;101337.91;5130836;28;20526;-79
2022/05/10 03:56:20;;;;;;;2.20;0.65;;;;;;;17.10;54.29;101334.34;5142718;28;20030;-79
2022/05/10 03:58:51;;;;;;;0.45;0.45;;;;;;;17.06;54.55;101338.06;5136058;28;20042;-79
2022/05/10 04:01:21;;;;;;;1.98;1.60;;;;;;;17.01;54.60;101330.31;5135573;28;20030;-80
2022/05/10 04:03:52;;;;;;;1.00;1.00;;;;;;;16.95;55.28;101320.84;5148335;28;20034;-80
2022/05/10 04:06:22;;;;;;;0.88;0.88;;;;;;;16.91;54.87;101324.50;5131688;28;20026;-80
2022/05/10 04:08:54;;;;;;;3.50;1.58;;;;;;;16.97;54.78;101331.38;5137079;28;20051;-79
2022/05/10 04:11:25;;;;;;;0.77;0.77;;;;;;;16.93;54.75;101329.81;5144898;28;20065;-79
2022/05/10 04:13:55;;;;;;;1.50;1.40;;;;;;;16.93;54.72;101329.81;5166198;28;20059;-80
2022/05/10 04:16:26;;;;;;;0.68;0.65;;;;;;;16.87;54.75;101330.91;5149227;28;20435;-80
2022/05/10 04:18:56;;;;;;;3.88;1.40;;;;;;;16.86;54.72;101331.81;5149715;28;20322;-79
2022/05/10 04:21:27;;;;;;;1.63;1.52;;;;;;;16.86;54.90;101334.47;5132149;28;20018;-79
2022/05/10 04:23:57;;;;;;;19.80;2.47;;;;;;;16.83;54.99;101335.47;5142932;28;20039;-80
2022/05/10 04:26:28;;;;;;;5.13;2.67;;;;;;;16.83;54.99;101329.28;5128681;28;20060;-80
2022/05/10 04:28:58;;;;;;;0.52;0.52;;;;;;;16.75;55.05;101331.41;5148528;28;20074;-81
2022/05/10 04:31:29;;;;;;;0.80;0.80;;;;;;;16.73;55.05;101328.00;5149744;28;20023;-81
2022/05/10 04:33:59;;;;;;;0.95;0.95;;;;;;;16.69;55.60;101335.22;5148455;28;20394;-81
2022/05/10 04:36:30;;;;;;;1.20;1.15;;;;;;;16.68;55.20;101338.78;5165449;28;20037;-81
2022/05/10 04:39:01;;;;;;;1.02;1.02;;;;;;;16.67;55.13;101335.25;5121185;28;20038;-81
2022/05/10 04:41:35;;;;;;;0.45;0.45;;;;;;;16.63;55.44;101338.97;5149279;28;20038;-81
2022/05/10 04:44:09;;;;;;;0.68;0.68;;;;;;;16.67;55.04;101337.06;5149328;28;20594;-81
2022/05/10 04:46:41;;;;;;;4.03;1.33;;;;;;;16.60;55.30;101336.44;5116332;28;20030;-81
2022/05/10 04:49:13;;;;;;;1.80;1.23;;;;;;;16.60;55.27;101336.44;5136861;28;20038;-81
2022/05/10 04:51:43;;;;;;;1.48;1.38;;;;;;;16.57;55.56;101344.50;5145624;28;20285;-81
2022/05/10 04:54:14;;;;;;;1.50;1.40;;;;;;;16.60;55.33;101339.09;5128093;28;20038;-82
2022/05/10 04:56:47;;;;;;;2.10;1.23;;;;;;;16.57;55.13;101349.81;5142212;28;20030;-80
2022/05/10 04:59:18;;;;;;;0.57;0.57;;;;;;;16.61;55.19;101334.69;5143036;28;20057;-80
2022/05/10 05:01:48;;;;;;;0.85;0.85;;;;;;;16.61;54.93;101334.69;5125979;28;20034;-82
2022/05/10 05:04:19;;;;;;;0.73;0.73;;;;;;;16.60;54.76;101344.41;5123203;28;20050;-81
2022/05/10 05:06:51;;;;;;;0.95;0.93;;;;;;;16.58;55.08;101334.81;5127506;28;20069;-81
2022/05/10 05:09:21;;;;;;;0.68;0.68;;;;;;;16.55;55.58;101343.75;5129236;28;20092;-80
2022/05/10 05:11:52;;;;;;;1.23;1.20;;;;;;;16.58;55.54;101345.41;5138353;28;20117;-81
2022/05/10 05:14:23;;;;;;;1.33;1.27;;;;;;;16.58;55.31;101348.88;5107177;28;20045;-80
2022/05/10 05:16:54;;;;;;;2.60;2.33;;;;;;;16.57;55.30;101349.81;5127362;28;20053;-80
2022/05/10 05:19:25;;;;;;;1.17;1.15;;;;;;;16.57;55.21;101349.81;5128954;28;20039;-80
2022/05/10 05:21:56;;;;;;;0.52;0.52;;;;;;;16.57;55.65;101347.16;5109920;28;20061;-79
2022/05/10 05:24:26;;;;;;;0.70;0.70;;;;;;;16.59;55.35;101353.28;5158300;28;20459;-80
2022/05/10 05:26:57;;;;;;;3.17;0.95;;;;;;;16.58;55.53;101348.88;5146806;28;20042;-80
2022/05/10 05:29:27;;;;;;;0.65;0.65;;;;;;;16.59;55.60;101347.13;5145602;28;20280;-80
2022/05/10 05:32:00;;;;;;;1.70;1.60;;;;;;;16.56;56.02;101347.25;5127068;28;20382;-80
2022/05/10 05:34:30;;;;;;;0.55;0.55;;;;;;;16.56;55.84;101348.13;5123837;28;20053;-80
2022/05/10 05:39:51;;;;;;;0.68;0.68;;;;;;;16.57;56.25;101355.09;5138172;28;20037;-79
2022/05/10 05:42:21;;;;;;;0.77;0.77;;;;;;;16.60;55.92;101352.34;5154025;28;20068;-78
2022/05/10 05:44:52;;;;;;;0.75;0.75;;;;;;;16.61;56.12;101340.81;5121495;28;20117;-78
2022/05/10 05:47:22;;;;;;;0.85;0.85;;;;;;;16.57;56.65;101344.50;5134049;28;20056;-79
2022/05/10 05:49:53;;;;;;;1.08;1.02;;;;;;;16.63;56.17;101349.56;5130300;28;20034;-79
2022/05/10 05:52:24;;;;;;;1.23;1.10;;;;;;;16.67;56.41;101345.00;5155656;28;20049;-79
2022/05/10 05:54:54;;;;;;;3.10;1.77;;;;;;;16.68;55.70;101347.59;5137962;28;20368;-79
2022/05/10 05:57:25;;;;;;;1.35;1.25;;;;;;;16.72;55.99;101344.81;5155093;28;20034;-80
2022/05/10 05:59:58;;;;;;;1.88;1.00;;;;;;;16.76;55.72;101335.78;5151362;28;20062;-79
2022/05/10 06:02:31;;;;;;;1.45;1.35;;;;;;;16.75;55.77;101342.88;5106530;28;20058;-79
2022/05/10 06:05:02;;;;;;;;;;;;;;;16.78;55.64;101348.03;5137845;28;20157;-79
2022/05/10 06:07:33;;;;;;;1.27;1.25;;;;;;;16.77;55.83;101335.75;5141109;28;19976;-79
2022/05/10 06:10:05;;;;;;;1.48;1.23;;;;;;;16.78;55.49;101334.78;5139084;28;20034;-80
2022/05/10 06:12:35;;;;;;;1.67;1.58;;;;;;;16.79;56.05;101333.00;5139310;28;20042;-79
2022/05/10 06:15:10;;;;;;;2.60;1.65;;;;;;;16.83;55.82;101334.59;5144913;28;20046;-81
2022/05/10 06:17:43;;;;;;;1.20;1.10;;;;;;;16.83;55.96;101339.88;5147454;28;20049;-82
2022/05/10 06:20:17;;;;;;;2.38;1.40;;;;;;;16.86;55.64;101331.81;5153311;28;20030;-81
2022/05/10 06:22:48;;;;;;;2.35;2.20;;;;;;;16.88;55.82;101339.69;5140069;28;20027;-81
2022/05/10 06:25:20;;;;;;;1.02;1.02;;;;;;;16.88;55.87;101329.97;5147036;28;20039;-81
2022/05/10 06:27:53;;;;;;;2.35;1.48;;;;;;;16.90;56.05;101329.88;5135972;28;20037;-81
2022/05/10 06:30:25;;;;;;;1.57;1.47;;;;;;;16.91;55.86;101324.50;5147859;28;20094;-81
2022/05/10 06:32:57;;;;;;;1.00;0.90;;;;;;;16.92;55.84;101326.25;5148852;28;20042;-81
2022/05/10 06:35:29;;;;;;;1.30;1.20;;;;;;;16.96;55.73;101329.66;5148773;28;20044;-78
2022/05/10 06:38:19;;;;;;;0.95;0.95;;;;;;;16.98;55.58;101320.69;5134936;28;20026;-80
2022/05/10 06:40:50;;;;;;;0.63;0.63;;;;;;;17.01;55.74;101321.50;5157208;28;20077;-80
2022/05/10 06:43:23;;;;;;;1.00;0.70;;;;;;;17.02;56.13;101323.22;5129431;28;20118;-80
2022/05/10 06:45:57;;;;;;;1.45;1.33;;;;;;;17.05;55.77;101323.09;5129887;28;20506;-80
2022/05/10 06:48:28;;;;;;;0.82;0.82;;;;;;;17.09;55.98;101319.34;5144174;28;20050;-80
2022/05/10 06:50:58;;;;;;;0.93;0.93;;;;;;;17.14;55.64;101315.56;5154675;23;20039;-78
2022/05/10 06:53:31;;;;;;;1.02;0.73;;;;;;;17.17;55.70;101316.38;5083517;28;20494;-78
2022/05/10 06:56:03;;;;;;;1.05;1.05;;;;;;;17.22;58.39;101309.06;5115196;29;20047;-78
2022/05/10 06:58:34;;;;;;;0.80;0.80;;;;;;;17.24;56.75;101308.06;5113132;28;20035;-79
2022/05/10 07:01:10;;;;;;;0.77;0.77;;;;;;;17.31;56.20;101306.84;5116940;28;20024;-78
2022/05/10 07:03:46;;;;;;;0.30;0.30;;;;;;;17.35;55.68;101304.94;5099113;28;20075;-78
2022/05/10 07:06:22;;;;;;;0.52;0.52;;;;;;;17.42;56.01;101306.34;5096615;29;20130;-79
2022/05/10 07:08:53;;;;;;;0.75;0.75;;;;;;;17.52;55.63;101301.47;5096851;29;20074;-78
2022/05/10 07:11:23;;;;;;;0.55;0.55;;;;;;;17.54;56.60;101314.66;5116202;28;20031;-78
2022/05/10 07:13:54;;;;;;;0.68;0.68;;;;;;;17.57;59.83;101303.91;5109968;29;20319;-78
2022/05/10 07:16:25;;;;;;;0.38;0.38;;;;;;;17.66;57.51;101303.47;5094786;29;20167;-78
2022/05/10 07:18:55;;;;;;;0.90;0.90;;;;;;;17.74;59.00;101295.13;5099339;29;20330;-78
2022/05/10 07:21:26;;;;;;;0.70;0.63;;;;;;;17.82;57.12;101292.97;5099834;29;20028;-78
2022/05/10 07:23:57;;;;;;;0.30;0.30;;;;;;;17.91;57.36;101292.53;5099517;29;20035;-79
2022/05/10 07:26:27;;;;;;;0.40;0.40;;;;;;;17.90;57.85;101290.81;5116256;28;20039;-78
2022/05/10 07:28:58;;;;;;;0.88;0.88;;;;;;;18.00;57.85;101295.69;5085954;29;20118;-78
2022/05/10 07:31:31;;;;;;;1.60;0.90;;;;;;;18.08;58.43;101289.09;5127959;28;20178;-78
2022/05/10 07:34:02;;;;;;;0.47;0.47;;;;;;;18.06;58.29;101290.94;5108711;29;20031;-78
2022/05/10 07:36:35;;;;;;;1.95;0.90;;;;;;;18.13;59.20;101290.63;5134424;28;20032;-78
2022/05/10 07:39:09;;;;;;;0.82;0.82;;;;;;;18.22;58.97;101285.72;5134060;28;20132;-78
2022/05/10 07:41:40;;;;;;;0.70;0.70;;;;;;;18.24;58.33;101281.19;5139172;28;20053;-80
2022/05/10 07:44:11;;;;;;;0.40;0.40;;;;;;;18.29;58.30;101282.78;5128759;28;20135;-79
2022/05/10 07:46:41;;;;;;;17.52;1.85;;;;;;;18.36;58.58;101282.38;5138802;29;20031;-79
2022/05/10 07:49:15;;;;;;;1.17;1.10;;;;;;;18.42;58.90;101291.81;5139665;28;20379;-78
2022/05/10 07:51:45;;;;;;;0.68;0.68;;;;;;;18.49;57.95;101279.94;5134094;28;20024;-79
2022/05/10 07:54:16;;;;;;;1.95;1.80;;;;;;;18.49;58.11;101285.25;5096092;29;20051;-78
2022/05/10 07:56:46;;;;;;;0.73;0.73;;;;;;;18.52;58.52;101281.56;5121758;29;20239;-78
2022/05/10 07:59:17;;;;;;;1.70;1.23;;;;;;;18.66;58.54;101278.19;5123662;28;20043;-79
2022/05/10 08:01:47;;;;;;;0.57;0.57;;;;;;;18.67;58.62;101279.94;5112356;29;20155;-78
2022/05/10 08:04:18;;;;;;;0.93;0.93;;;;;;;18.72;58.80;101278.75;5106941;29;20039;-78
2022/05/10 08:06:49;;;;;;;5.53;0.93;;;;;;;18.78;58.88;101274.91;5113738;29;20340;-78
2022/05/10 08:09:19;;;;;;;0.55;0.55;;;;;;;18.82;59.06;101273.78;5102841;29;20035;-78
2022/05/10 08:11:52;;;;;;;0.80;0.73;;;;;;;18.85;58.01;101267.44;5111763;28;20055;-78
2022/05/10 08:14:23;;;;;;;4.65;2.05;;;;;;;18.86;57.84;101272.72;5100525;29;20031;-78
2022/05/10 08:16:53;;;;;;;0.75;0.75;;;;;;;18.94;57.80;101259.03;5099027;29;20272;-78
2022/05/10 08:19:24;;;;;;;0.77;0.77;;;;;;;18.99;57.65;101262.31;5124680;28;20059;-78
2022/05/10 08:21:56;;;;;;;0.88;0.85;;;;;;;19.01;58.54;101256.91;5130430;28;20082;-78
2022/05/10 08:24:27;;;;;;;0.85;0.85;;;;;;;19.08;57.84;101263.59;5102359;29;20039;-78
2022/05/10 08:26:58;;;;;;;0.52;0.52;;;;;;;19.15;58.26;101266.78;5112656;29;20543;-78
2022/05/10 08:29:28;;;;;;;0.70;0.70;;;;;;;19.19;58.77;101255.03;5098290;29;20027;-79
2022/05/10 08:31:59;;;;;;;1.67;1.58;;;;;;;19.29;58.74;101260.72;5117283;28;20027;-79
2022/05/10 08:34:34;;;;;;;0.50;0.50;;;;;;;19.41;58.08;101249.38;5097960;29;20662;-79
2022/05/10 08:37:05;;;;;;;1.20;1.10;;;;;;;19.48;58.77;101260.53;5121203;28;20044;-79
2022/05/10 08:39:35;;;;;;;1.05;1.02;;;;;;;19.67;57.74;101247.06;5095317;29;20048;-79
2022/05/10 08:42:25;;;;;;;0.57;0.57;;;;;;;19.73;57.38;101244.03;5111635;28;20031;-78
2022/05/10 08:45:05;;;;;;;1.42;0.73;;;;;;;19.81;57.33;101241.78;5119189;28;20118;-78
2022/05/10 08:47:37;;;;;;;0.63;0.63;;;;;;;19.97;56.54;101247.13;5114086;28;20039;-79
2022/05/10 08:50:11;;;;;;;0.40;0.40;;;;;;;20.04;55.22;101241.44;5098232;28;20130;-79
2022/05/10 08:52:45;;;;;;;0.50;0.50;;;;;;;20.12;54.40;101240.00;5118029;28;20035;-79
2022/05/10 08:55:21;;;;;;;1.30;0.85;;;;;;;20.18;54.29;101233.47;5098781;29;20039;-79
2022/05/10 08:57:54;;;;;;;0.70;0.70;;;;;;;20.33;54.22;101236.19;5109354;29;20031;-79
2022/05/10 09:00:31;;;;;;;;;;;;;;;20.50;52.90;101237.81;5099713;28;20750;-79
2022/05/10 09:03:11;;;;;;;1.17;0.65;;;;;;;20.50;52.51;101235.16;5086806;29;20025;-78
2022/05/10 09:05:43;;;;;;;0.63;0.63;;;;;;;20.63;51.45;101233.44;5112568;28;20722;-79
2022/05/10 09:08:42;;;;;;;0.43;0.43;;;;;;;20.67;51.46;101226.97;5108570;29;20060;-79
2022/05/10 09:11:14;;;;;;;0.50;0.50;;;;;;;20.78;50.60;101231.66;5109753;28;20085;-78
2022/05/10 09:13:47;;;;;;;11.30;1.30;;;;;;;20.90;50.57;101228.25;5112552;28;20050;-78
2022/05/10 09:16:18;;;;;;;0.47;0.47;;;;;;;20.88;49.28;101231.94;5111393;28;20112;-78
2022/05/10 09:18:52;;;;;;;0.70;0.70;;;;;;;20.95;48.97;101222.59;5107187;29;20436;-78
2022/05/10 09:21:32;;;;;;;0.52;0.52;;;;;;;21.02;48.79;101223.97;5093619;29;20182;-78
2022/05/10 09:24:21;;;;;;;0.52;0.52;;;;;;;21.09;47.93;101223.56;5079147;29;20531;-79
2022/05/10 09:26:57;;;;;;;0.40;0.40;;;;;;;21.17;46.35;101216.75;5110180;29;20546;-78
2022/05/10 09:29:37;;;;;;;0.85;0.75;;;;;;;21.19;46.51;101214.03;5112347;28;20051;-78
2022/05/10 09:35:19;;;;;;;0.55;0.55;;;;;;;21.50;47.21;101218.19;5107414;29;20043;-78
2022/05/10 09:37:55;;;;;;;0.40;0.40;;;;;;;21.45;46.09;101216.78;5093813;29;20038;-78
2022/05/10 09:40:41;;;;;;;0.50;0.50;;;;;;;21.51;44.96;101213.75;5111732;28;20046;-78
2022/05/10 09:43:17;;;;;;;0.55;0.55;;;;;;;21.59;44.95;101210.56;5113559;28;20031;-78
2022/05/10 09:46:09;;;;;;;1.27;0.43;;;;;;;21.62;45.62;101211.22;5096530;29;20081;-78
2022/05/10 09:48:42;;;;;;;0.63;0.63;;;;;;;21.77;43.43;101205.84;5096493;28;20047;-78
2022/05/10 09:51:34;;;;;;;0.20;0.20;;;;;;;21.80;44.03;101203.81;5108718;28;20511;-78
2022/05/10 09:54:11;;;;;;;0.82;0.70;;;;;;;22.08;41.80;101211.78;5113465;28;20039;-78
2022/05/10 09:56:44;;;;;;;0.65;0.65;;;;;;;22.12;42.41;101194.56;5095332;29;20364;-78
2022/05/10 09:59:42;;;;;;;0.22;0.22;;;;;;;22.19;42.30;101195.00;5116618;28;20031;-78
2022/05/10 10:02:27;;;;;;;0.50;0.50;;;;;;;22.26;42.38;101191.81;5089748;29;20063;-78
2022/05/10 10:04:59;;;;;;;0.15;0.15;;;;;;;22.44;41.08;101196.84;5106755;29;20531;-78
2022/05/10 10:07:30;;;;;;;0.90;0.88;;;;;;;22.48;41.38;101198.38;5113641;29;20315;-78
2022/05/10 10:10:17;;;;;;;0.43;0.40;;;;;;;22.52;41.92;101188.31;5130504;28;20035;-78
2022/05/10 10:12:47;;;;;;;0.50;0.50;;;;;;;22.53;41.98;101188.19;5124090;28;20109;-79
2022/05/10 10:15:21;;;;;;;0.52;0.52;;;;;;;22.65;40.64;101189.16;5121172;28;20043;-78
2022/05/10 10:17:55;;;;;;;0.32;0.32;;;;;;;22.67;38.95;101181.88;5120233;29;20535;-78
2022/05/10 10:20:54;;;;;;;0.40;0.40;;;;;;;22.70;38.90;101186.16;5127918;28;20035;-78
2022/05/10 10:23:31;;;;;;;0.40;0.40;;;;;;;22.74;38.23;101187.66;5119194;28;20750;-78
2022/05/10 10:26:26;;;;;;;0.30;0.30;;;;;;;22.81;39.11;101178.22;5118043;29;20043;-78
2022/05/10 10:29:22;;;;;;;0.30;0.30;;;;;;;22.90;38.92;101185.59;5109845;28;20054;-78
2022/05/10 10:32:00;;;;;;;0.90;0.90;;;;;;;22.99;38.21;101181.38;5118745;28;20093;-78
2022/05/10 10:34:54;;;;;;;0.30;0.30;;;;;;;23.04;37.09;101178.38;5118427;28;20380;-78
2022/05/10 10:37:32;;;;;;;2.13;1.58;;;;;;;23.07;37.82;101172.81;5088662;29;20035;-78
2022/05/10 10:40:15;;;;;;;0.20;0.20;;;;;;;23.10;37.90;101177.91;5116071;28;20046;-78
2022/05/10 10:42:57;;;;;;;8.90;0.60;;;;;;;23.08;36.50;101179.88;5119250;29;20035;-79
2022/05/10 10:45:48;;;;;;;0.50;0.50;;;;;;;23.05;36.36;101180.09;5111701;28;20034;-78
2022/05/10 10:48:27;;;;;;;1.00;0.88;;;;;;;23.10;37.57;101164.53;5109099;29;20042;-78
2022/05/10 10:50:58;;;;;;;0.35;0.35;;;;;;;23.09;37.30;101165.53;5120762;28;20403;-78
2022/05/10 10:53:29;;;;;;;0.20;0.20;;;;;;;23.15;37.74;101158.84;5133987;28;20118;-78
2022/05/10 10:56:18;;;;;;;0.63;0.63;;;;;;;23.18;38.29;101154.16;5103240;28;20114;-78
2022/05/10 10:59:11;;;;;;;1.02;0.70;;;;;;;23.32;38.85;101165.69;5119453;28;20137;-78
2022/05/10 11:01:50;;;;;;;0.52;0.52;;;;;;;23.35;38.11;101157.41;5116665;28;20114;-79
2022/05/10 11:04:54;;;;;;;0.93;0.93;;;;;;;23.41;38.57;101149.78;5121193;28;20123;-80
2022/05/10 11:08:04;;;;;;;0.40;0.40;;;;;;;23.49;38.40;101146.53;5099379;29;20023;-80
2022/05/10 11:11:05;;;;;;;0.40;0.40;;;;;;;23.54;37.89;101139.00;5114138;28;20047;-79
2022/05/10 11:13:47;;;;;;;0.50;0.40;;;;;;;23.60;38.32;101142.16;5097217;28;20507;-78
2022/05/10 11:16:28;;;;;;;0.82;0.80;;;;;;;23.62;37.85;101148.28;5112561;29;20039;-78
2022/05/10 11:19:43;;;;;;;1.10;0.43;;;;;;;23.68;38.15;101139.75;5114602;28;20047;-79
2022/05/10 11:22:25;;;;;;;1.90;1.30;;;;;;;23.62;36.75;101135.75;5062111;29;20035;-79
2022/05/10 11:25:16;;;;;;;0.30;0.30;;;;;;;23.68;37.97;101135.28;5125838;29;20053;-79
2022/05/10 11:28:05;;;;;;;0.45;0.45;;;;;;;23.74;37.13;101125.91;5120755;29;20093;-79
2022/05/10 11:30:57;;;;;;;0.30;0.30;;;;;;;23.73;36.67;101127.72;5083128;29;20047;-79
2022/05/10 11:33:45;;;;;;;0.50;0.50;;;;;;;23.77;36.80;101116.78;5111687;29;20363;-79
2022/05/10 11:36:23;;;;;;;0.50;0.50;;;;;;;23.84;36.46;101120.69;5110766;29;20100;-78
2022/05/10 11:39:15;;;;;;;0.25;0.25;;;;;;;23.97;37.15;101118.78;5097634;29;20047;-79
2022/05/10 11:41:55;;;;;;;0.25;0.25;;;;;;;23.95;36.72;101119.91;5112091;28;20178;-79
2022/05/10 11:45:03;;;;;;;0.60;0.60;;;;;;;24.06;37.44;101111.88;5099161;29;20050;-80
2022/05/10 11:47:50;;;;;;;0.20;0.20;;;;;;;24.21;37.71;101107.16;5116195;28;20102;-79
2022/05/10 11:53:41;;;;;;;5.88;1.48;;;;;;;24.50;36.79;101104.81;5139006;28;20447;-80
2022/05/10 11:56:15;;;;;;;0.65;0.65;;;;;;;24.66;35.49;101098.22;5084190;29;20094;-79
2022/05/10 11:58:45;;;;;;;0.55;0.55;;;;;;;24.71;36.22;101104.09;5114604;28;20043;-79
2022/05/10 12:01:55;;;;;;;0.40;0.40;;;;;;;24.57;35.42;101093.59;5115951;28;20038;-79
2022/05/10 12:04:28;;;;;;;0.57;0.57;;;;;;;24.59;36.42;101092.50;5098556;29;20062;-80
2022/05/10 12:07:20;;;;;;;1.30;1.13;;;;;;;24.84;35.58;101095.91;5132151;28;20028;-79
2022/05/10 12:09:59;;;;;;;5.07;1.70;;;;;;;24.88;34.90;101093.81;5115499;28;20054;-78
2022/05/10 12:12:32;;;;;;;0.85;0.77;;;;;;;24.80;34.25;101086.38;5109824;29;20063;-78
2022/05/10 12:21:21;;;;;;;0.63;0.63;;;;;;;24.92;36.15;101069.28;5116242;28;20067;-78
2022/05/10 12:24:19;;;;;;;0.55;0.47;;;;;;;24.82;36.13;101065.66;5111775;29;20047;-79
2022/05/10 12:26:54;;;;;;;1.75;0.95;;;;;;;24.74;35.94;101066.28;5078315;29;20098;-78
2022/05/10 12:29:40;;;;;;;6.90;2.35;;;;;;;24.92;36.18;101052.31;5104859;29;20428;-78